createdAt,value
2022-08-25T00:00:36.901Z,78.30
2022-08-25T00:03:08.412Z,78.40
2022-08-25T00:05:37.334Z,78.90
2022-08-25T00:08:07.780Z,78.80
2022-08-25T00:10:38.670Z,79.90
2022-08-25T00:13:08.179Z,80.40
2022-08-25T00:15:38.682Z,81.50
2022-08-25T00:18:19.459Z,80.90
2022-08-25T00:20:49.400Z,80.50
2022-08-25T00:23:18.453Z,81.00
2022-08-25T00:25:47.766Z,80.90
2022-08-25T00:28:16.967Z,82.10
2022-08-25T00:30:47.490Z,82.70
2022-08-25T00:33:16.497Z,82.90
2022-08-25T00:35:46.381Z,86.40
2022-08-25T00:38:16.814Z,87.30
2022-08-25T00:40:46.976Z,89.90
2022-08-25T00:43:15.806Z,90.20
2022-08-25T00:45:44.588Z,90.80
2022-08-25T00:48:14.823Z,90.80
2022-08-25T00:50:43.658Z,91.30
2022-08-25T00:53:12.494Z,91.60
2022-08-25T00:55:42.353Z,92.20
2022-08-25T00:58:17.347Z,92.50
2022-08-25T01:00:49.644Z,93.30
2022-08-25T01:03:20.754Z,93.80
2022-08-25T01:05:53.993Z,93.20
2022-08-25T01:08:29.196Z,93.10
2022-08-25T01:11:00.812Z,93.10
2022-08-25T01:13:35.002Z,93.10
2022-08-25T01:16:04.715Z,93.00
2022-08-25T01:18:48.106Z,92.90
2022-08-25T01:21:21.070Z,92.50
2022-08-25T01:23:51.204Z,92.20
2022-08-25T01:26:30.244Z,91.80
2022-08-25T01:29:17.898Z,92.10
2022-08-25T01:31:46.845Z,92.10
2022-08-25T01:34:16.194Z,92.60
2022-08-25T01:36:46.904Z,92.40
2022-08-25T01:39:16.276Z,92.80
2022-08-25T01:41:56.527Z,93.00
2022-08-25T01:44:26.096Z,93.40
2022-08-25T01:46:55.429Z,93.40
2022-08-25T01:49:24.269Z,93.10
2022-08-25T01:51:58.658Z,93.20
2022-08-25T01:54:27.515Z,93.30
2022-08-25T01:56:56.258Z,93.30
2022-08-25T01:59:25.821Z,93.20
2022-08-25T02:02:00.147Z,93.00
2022-08-25T02:04:32.502Z,93.10
2022-08-25T02:07:05.307Z,93.40
2022-08-25T02:09:34.327Z,93.90
2022-08-25T02:12:03.363Z,94.00
2022-08-25T02:14:32.257Z,94.00
2022-08-25T02:17:01.125Z,94.10
2022-08-25T02:19:31.218Z,93.90
2022-08-25T02:22:00.665Z,93.90
2022-08-25T02:24:31.123Z,94.30
2022-08-25T02:27:00.791Z,94.80
2022-08-25T02:29:29.812Z,94.40
2022-08-25T02:31:59.105Z,94.50
2022-08-25T02:34:27.962Z,94.10
2022-08-25T02:36:56.773Z,94.50
2022-08-25T02:39:25.722Z,94.20
2022-08-25T02:41:56.075Z,94.30
2022-08-25T02:44:24.892Z,94.60
2022-08-25T02:46:53.704Z,94.50
2022-08-25T02:49:22.593Z,94.10
2022-08-25T02:51:52.056Z,94.10
2022-08-25T02:54:20.905Z,94.60
2022-08-25T02:56:50.579Z,94.70
2022-08-25T02:59:21.219Z,95.20
2022-08-25T03:01:50.146Z,95.60
2022-08-25T03:04:19.359Z,95.50
2022-08-25T03:06:48.489Z,95.60
2022-08-25T03:09:18.277Z,96.40
2022-08-25T03:11:47.577Z,96.40
2022-08-25T03:14:16.675Z,95.90
2022-08-25T03:16:47.117Z,95.90
2022-08-25T03:19:16.908Z,96.10
2022-08-25T03:21:46.468Z,96.00
2022-08-25T03:24:15.227Z,96.00
2022-08-25T03:26:56.197Z,95.60
2022-08-25T03:29:26.907Z,95.70
2022-08-25T03:31:58.417Z,96.00
2022-08-25T03:34:29.221Z,95.60
2022-08-25T03:36:59.118Z,95.60
2022-08-25T03:39:29.193Z,95.70
2022-08-25T03:41:58.047Z,96.00
2022-08-25T03:44:26.888Z,96.20
2022-08-25T03:46:57.169Z,96.10
2022-08-25T03:49:26.511Z,96.60
2022-08-25T03:51:56.326Z,96.80
2022-08-25T03:54:26.758Z,96.70
2022-08-25T03:56:56.127Z,96.20
2022-08-25T03:59:25.816Z,96.40
2022-08-25T04:01:55.548Z,96.50
2022-08-25T04:04:26.007Z,96.30
2022-08-25T04:06:54.857Z,95.90
2022-08-25T04:09:24.107Z,95.80
2022-08-25T04:11:53.575Z,95.80
2022-08-25T04:14:23.903Z,95.50
2022-08-25T04:16:54.181Z,96.00
2022-08-25T04:19:23.568Z,96.40
2022-08-25T04:21:56.762Z,96.90
2022-08-25T04:24:26.177Z,97.10
2022-08-25T04:26:54.967Z,97.10
2022-08-25T04:29:25.629Z,97.00
2022-08-25T04:31:55.621Z,96.80
2022-08-25T04:34:29.462Z,96.80
2022-08-25T04:37:01.288Z,96.40
2022-08-25T04:39:30.567Z,96.80
2022-08-25T04:42:00.879Z,96.50
2022-08-25T04:44:30.908Z,96.10
2022-08-25T04:47:00.596Z,96.30
2022-08-25T04:49:29.709Z,96.50
2022-08-25T04:52:00.336Z,96.70
2022-08-25T04:54:29.165Z,95.70
2022-08-25T04:57:06.285Z,95.70
2022-08-25T04:59:35.086Z,95.70
2022-08-25T05:02:05.442Z,95.80
2022-08-25T05:04:35.912Z,95.80
2022-08-25T05:07:06.859Z,96.10
2022-08-25T05:09:35.804Z,96.00
2022-08-25T05:12:05.462Z,95.70
2022-08-25T05:14:35.434Z,95.50
2022-08-25T05:17:04.336Z,95.90
2022-08-25T05:19:33.144Z,96.20
2022-08-25T05:22:01.936Z,96.10
2022-08-25T05:24:32.155Z,95.90
2022-08-25T05:27:00.978Z,96.00
2022-08-25T05:29:29.866Z,95.70
2022-08-25T05:31:59.008Z,95.50
2022-08-25T05:34:27.926Z,95.20
2022-08-25T05:37:00.234Z,95.00
2022-08-25T05:39:32.626Z,94.80
2022-08-25T05:42:02.886Z,94.70
2022-08-25T05:44:31.706Z,94.50
2022-08-25T05:47:00.566Z,94.70
2022-08-25T05:49:29.537Z,94.70
2022-08-25T05:51:59.821Z,94.70
2022-08-25T05:54:28.746Z,94.70
2022-08-25T05:56:57.913Z,94.50
2022-08-25T05:59:29.480Z,94.40
2022-08-25T06:02:15.609Z,94.40
2022-08-25T06:04:44.866Z,93.90
2022-08-25T06:07:13.796Z,94.00
2022-08-25T06:09:46.147Z,93.90
2022-08-25T06:12:15.244Z,93.70
2022-08-25T06:14:45.568Z,93.70
2022-08-25T06:17:14.406Z,93.60
2022-08-25T06:19:43.305Z,93.70
2022-08-25T06:22:12.622Z,93.40
2022-08-25T06:24:41.528Z,92.80
2022-08-25T06:27:10.336Z,92.70
2022-08-25T06:29:39.175Z,92.30
2022-08-25T06:32:12.201Z,92.10
2022-08-25T06:34:41.067Z,91.80
2022-08-25T06:37:09.926Z,91.90
2022-08-25T06:39:38.695Z,92.20
2022-08-25T06:42:07.826Z,92.30
2022-08-25T06:44:36.699Z,91.00
2022-08-25T06:47:05.867Z,90.80
2022-08-25T06:49:36.340Z,91.20
2022-08-25T06:52:06.126Z,90.50
2022-08-25T06:54:34.946Z,90.40
2022-08-25T06:57:04.269Z,90.80
2022-08-25T06:59:33.087Z,90.90
2022-08-25T07:02:03.663Z,91.40
2022-08-25T07:04:33.023Z,90.70
2022-08-25T07:07:03.417Z,91.30
2022-08-25T07:09:35.259Z,91.30
2022-08-25T07:12:06.511Z,90.40
2022-08-25T07:14:35.519Z,90.20
2022-08-25T07:17:10.553Z,90.40
2022-08-25T07:19:41.380Z,90.50
2022-08-25T07:22:11.645Z,90.80
2022-08-25T07:24:40.500Z,91.50
2022-08-25T07:27:09.334Z,90.20
2022-08-25T07:29:42.257Z,90.70
2022-08-25T07:32:11.696Z,88.30
2022-08-25T07:34:57.893Z,87.80
2022-08-25T07:37:47.787Z,87.60
2022-08-25T07:40:20.068Z,87.20
2022-08-25T07:42:50.705Z,88.30
2022-08-25T07:45:21.183Z,88.00
2022-08-25T07:47:53.918Z,87.90
2022-08-25T07:50:23.242Z,87.20
2022-08-25T07:53:05.564Z,86.80
2022-08-25T07:55:36.714Z,84.90
2022-08-25T07:58:07.297Z,85.10
2022-08-25T08:00:37.908Z,88.10
2022-08-25T08:03:10.002Z,84.00
2022-08-25T08:05:43.350Z,83.80
2022-08-25T08:08:13.698Z,84.40
2022-08-25T08:11:04.154Z,84.00
2022-08-25T08:13:33.176Z,83.50
2022-08-25T08:16:03.785Z,83.90
2022-08-25T08:18:33.703Z,81.70
2022-08-25T08:21:02.445Z,82.30
2022-08-25T08:23:34.176Z,82.50
2022-08-25T08:26:03.038Z,83.20
2022-08-25T08:28:33.253Z,81.00
2022-08-25T08:31:02.304Z,83.00
2022-08-25T08:33:31.687Z,81.60
2022-08-25T08:36:07.194Z,81.20
2022-08-25T08:38:38.735Z,80.70
2022-08-25T08:41:54.302Z,80.10
2022-08-25T08:44:29.607Z,81.50
2022-08-25T08:47:08.985Z,83.20
2022-08-25T08:49:49.087Z,82.00
2022-08-25T08:52:20.984Z,82.60
2022-08-25T08:54:57.353Z,78.90
2022-08-25T08:57:29.859Z,79.20
2022-08-25T09:00:03.190Z,77.70
2022-08-25T09:02:49.727Z,76.90
2022-08-25T09:05:21.251Z,76.40
2022-08-25T09:08:05.086Z,76.40
2022-08-25T09:10:43.278Z,77.20
2022-08-25T09:13:20.588Z,77.30
2022-08-25T09:16:23.212Z,77.10
2022-08-25T09:19:12.947Z,78.30
2022-08-25T09:21:58.436Z,77.50
2022-08-25T09:24:47.686Z,77.70
2022-08-25T09:27:25.576Z,76.10
2022-08-25T09:30:01.648Z,74.80
2022-08-25T09:32:38.888Z,75.60
2022-08-25T09:35:16.297Z,75.50
2022-08-25T09:37:45.236Z,76.40
2022-08-25T09:40:14.027Z,74.30
2022-08-25T09:42:57.946Z,74.60
2022-08-25T09:45:38.078Z,75.00
2022-08-25T09:48:23.882Z,73.50
2022-08-25T09:50:55.045Z,72.70
2022-08-25T09:53:25.016Z,74.40
2022-08-25T09:56:01.595Z,74.90
2022-08-25T09:58:32.114Z,72.90
2022-08-25T10:01:22.665Z,73.10
2022-08-25T10:04:03.596Z,73.80
2022-08-25T10:06:43.905Z,71.90
2022-08-25T10:09:24.477Z,72.50
2022-08-25T10:11:57.709Z,72.20
2022-08-25T10:14:37.408Z,73.00
2022-08-25T10:17:27.625Z,73.40
2022-08-25T10:20:17.375Z,72.60
2022-08-25T10:22:48.190Z,71.60
2022-08-25T10:25:23.634Z,70.60
2022-08-25T10:28:06.475Z,71.80
2022-08-25T10:30:48.521Z,70.90
2022-08-25T10:33:29.835Z,69.30
2022-08-25T10:36:04.533Z,68.90
2022-08-25T10:38:39.733Z,68.70
2022-08-25T10:41:32.783Z,68.80
2022-08-25T10:44:28.565Z,68.90
2022-08-25T10:47:12.255Z,68.00
2022-08-25T10:49:47.474Z,67.30
2022-08-25T10:52:25.115Z,69.40
2022-08-25T10:55:03.163Z,69.80
2022-08-25T10:57:37.452Z,66.10
2022-08-25T11:00:09.795Z,66.60
2022-08-25T11:03:08.705Z,67.40
2022-08-25T11:05:42.719Z,66.40
2022-08-25T11:08:17.974Z,67.50
2022-08-25T11:10:50.766Z,67.30
2022-08-25T11:13:28.314Z,66.50
2022-08-25T11:16:20.333Z,66.20
2022-08-25T11:18:57.764Z,66.20
2022-08-25T11:21:36.297Z,66.10
2022-08-25T11:24:16.184Z,65.20
2022-08-25T11:26:54.785Z,65.20
2022-08-25T11:29:26.694Z,66.20
2022-08-25T11:31:56.064Z,64.20
2022-08-25T11:34:28.854Z,64.40
2022-08-25T11:37:04.105Z,63.10
2022-08-25T11:40:00.089Z,63.10
2022-08-25T11:42:43.262Z,62.50
2022-08-25T11:45:25.254Z,61.90
2022-08-25T11:48:13.754Z,62.10
2022-08-25T11:51:01.497Z,61.30
2022-08-25T11:53:33.185Z,61.70
2022-08-25T11:56:05.712Z,63.00
2022-08-25T11:58:49.755Z,63.10
2022-08-25T12:02:11.224Z,62.50
2022-08-25T12:04:44.196Z,62.30
2022-08-25T12:07:28.120Z,61.50
2022-08-25T12:10:18.774Z,63.40
2022-08-25T12:13:04.858Z,59.60
2022-08-25T12:15:59.280Z,63.00
2022-08-25T12:18:46.633Z,59.00
2022-08-25T12:21:34.304Z,59.60
2022-08-25T12:24:23.440Z,60.40
2022-08-25T12:26:59.373Z,59.30
2022-08-25T12:29:43.687Z,61.00
2022-08-25T12:32:29.520Z,59.80
2022-08-25T12:35:19.016Z,57.80
2022-08-25T12:38:01.307Z,60.30
2022-08-25T12:40:36.994Z,58.80
2022-08-25T12:43:14.633Z,57.70
2022-08-25T12:45:50.672Z,57.30
2022-08-25T12:48:58.101Z,57.50
2022-08-25T12:51:30.221Z,54.70
2022-08-25T12:54:16.077Z,56.00
2022-08-25T12:56:56.710Z,57.40
2022-08-25T12:59:36.519Z,51.90
2022-08-25T13:02:40.033Z,53.90
2022-08-25T13:06:08.105Z,52.90
2022-08-25T13:09:00.569Z,54.00
2022-08-25T13:11:35.422Z,53.30
2022-08-25T13:14:17.980Z,52.50
2022-08-25T13:16:55.624Z,54.00
2022-08-25T13:19:25.763Z,55.50
2022-08-25T13:21:56.125Z,54.50
2022-08-25T13:24:28.593Z,54.30
2022-08-25T13:27:01.003Z,53.40
2022-08-25T13:29:36.877Z,53.20
2022-08-25T13:32:12.696Z,54.30
2022-08-25T13:34:44.554Z,54.10
2022-08-25T13:37:33.452Z,54.00
2022-08-25T13:40:17.629Z,53.30
2022-08-25T13:42:55.649Z,52.30
2022-08-25T13:45:41.605Z,52.10
2022-08-25T13:48:22.957Z,51.70
2022-08-25T13:51:07.842Z,52.50
2022-08-25T13:53:38.049Z,50.50
2022-08-25T13:56:07.544Z,52.00
2022-08-25T13:58:45.094Z,52.70
2022-08-25T14:01:45.016Z,53.50
2022-08-25T14:04:51.224Z,53.80
2022-08-25T14:07:34.373Z,52.60
2022-08-25T14:10:06.601Z,51.90
2022-08-25T14:12:40.068Z,51.60
2022-08-25T14:15:14.267Z,52.20
2022-08-25T14:20:27.395Z,50.70
2022-08-25T14:22:58.821Z,51.70
2022-08-25T14:25:30.474Z,50.70
2022-08-25T14:28:09.103Z,50.00
2022-08-25T14:30:45.993Z,48.90
2022-08-25T14:33:17.914Z,49.80
2022-08-25T14:35:51.926Z,49.50
2022-08-25T14:38:25.209Z,50.30
2022-08-25T14:40:54.225Z,50.70
2022-08-25T14:43:23.961Z,52.60
2022-08-25T14:45:53.654Z,53.60
2022-08-25T14:48:28.186Z,54.50
2022-08-25T14:50:59.736Z,53.70
2022-08-25T14:53:29.263Z,51.70
2022-08-25T14:55:59.068Z,50.30
2022-08-25T14:58:33.847Z,48.00
2022-08-25T15:01:05.634Z,49.20
2022-08-25T15:03:41.680Z,50.30
2022-08-25T15:06:14.645Z,49.40
2022-08-25T15:09:01.017Z,48.90
2022-08-25T15:11:30.346Z,48.90
2022-08-25T15:14:01.660Z,48.90
2022-08-25T15:16:35.199Z,49.00
2022-08-25T15:19:07.573Z,48.00
2022-08-25T15:21:37.603Z,48.10
2022-08-25T15:24:10.169Z,48.20
2022-08-25T15:26:44.186Z,48.00
2022-08-25T15:29:13.565Z,47.40
2022-08-25T15:31:44.576Z,47.60
2022-08-25T15:34:15.949Z,47.70
2022-08-25T15:36:44.847Z,47.40
2022-08-25T15:39:13.787Z,46.90
2022-08-25T15:41:42.861Z,46.80
2022-08-25T15:44:12.492Z,47.00
2022-08-25T15:46:49.501Z,47.10
2022-08-25T15:49:24.096Z,46.90
2022-08-25T15:51:54.404Z,47.00
2022-08-25T15:54:26.583Z,48.10
2022-08-25T15:56:56.618Z,47.00
2022-08-25T15:59:26.545Z,47.10
2022-08-25T16:01:56.739Z,47.00
2022-08-25T16:04:29.936Z,46.70
2022-08-25T16:06:58.933Z,47.30
2022-08-25T16:09:28.100Z,47.30
2022-08-25T16:12:03.980Z,48.30
2022-08-25T16:14:35.526Z,49.40
2022-08-25T16:17:04.586Z,50.80
2022-08-25T16:19:35.803Z,50.90
2022-08-25T16:22:08.946Z,50.70
2022-08-25T16:24:42.439Z,49.80
2022-08-25T16:27:12.226Z,48.60
2022-08-25T16:29:42.347Z,50.00
2022-08-25T16:32:13.335Z,51.70
2022-08-25T16:34:44.718Z,52.20
2022-08-25T16:37:14.146Z,52.60
2022-08-25T16:39:46.180Z,52.40
2022-08-25T16:42:15.246Z,51.70
2022-08-25T16:44:44.870Z,51.40
2022-08-25T16:47:14.597Z,51.40
2022-08-25T16:49:48.688Z,51.20
2022-08-25T16:52:35.407Z,49.70
2022-08-25T16:55:16.829Z,50.60
2022-08-25T16:57:48.378Z,51.40
2022-08-25T17:00:22.105Z,52.60
2022-08-25T17:02:54.423Z,53.20
2022-08-25T17:05:24.847Z,53.80
2022-08-25T17:08:10.045Z,54.20
2022-08-25T17:10:42.347Z,54.40
2022-08-25T17:13:13.026Z,54.90
2022-08-25T17:15:44.025Z,55.20
2022-08-25T17:18:21.080Z,55.60
2022-08-25T17:21:00.107Z,56.10
2022-08-25T17:23:29.686Z,55.40
2022-08-25T17:25:58.676Z,55.80
2022-08-25T17:28:28.599Z,57.20
2022-08-25T17:30:57.990Z,55.90
2022-08-25T17:33:26.963Z,55.20
2022-08-25T17:36:00.234Z,55.10
2022-08-25T17:38:30.319Z,56.10
2022-08-25T17:41:05.236Z,56.70
2022-08-25T17:43:35.465Z,56.20
2022-08-25T17:46:07.129Z,57.60
2022-08-25T17:48:38.248Z,57.10
2022-08-25T17:51:15.929Z,58.30
2022-08-25T17:53:45.516Z,59.50
2022-08-25T17:56:18.689Z,59.80
2022-08-25T17:58:47.665Z,60.50
2022-08-25T18:01:18.929Z,60.00
2022-08-25T18:03:48.284Z,60.30
2022-08-25T18:06:18.726Z,61.60
2022-08-25T18:08:52.258Z,62.20
2022-08-25T18:11:24.994Z,62.50
2022-08-25T18:13:54.446Z,62.60
2022-08-25T18:16:25.053Z,63.40
2022-08-25T18:18:55.274Z,63.60
2022-08-25T18:21:30.306Z,63.00
2022-08-25T18:24:00.296Z,64.60
2022-08-25T18:26:29.185Z,64.20
2022-08-25T18:28:58.095Z,64.20
2022-08-25T18:31:27.103Z,65.80
2022-08-25T18:33:56.013Z,66.20
2022-08-25T18:36:24.854Z,65.20
2022-08-25T18:39:13.657Z,65.30
2022-08-25T18:41:45.225Z,66.40
2022-08-25T18:44:15.459Z,67.20
2022-08-25T18:46:45.489Z,68.90
2022-08-25T18:49:17.560Z,69.00
2022-08-25T18:51:47.262Z,70.30
2022-08-25T18:54:23.104Z,71.60
2022-08-25T18:56:54.074Z,72.70
2022-08-25T18:59:23.284Z,74.60
2022-08-25T19:01:54.118Z,74.30
2022-08-25T19:04:31.249Z,74.80
2022-08-25T19:07:01.440Z,74.90
2022-08-25T19:09:32.457Z,74.60
2022-08-25T19:12:02.267Z,75.70
2022-08-25T19:14:31.296Z,75.40
2022-08-25T19:17:01.067Z,75.80
2022-08-25T19:19:30.264Z,75.50
2022-08-25T19:22:00.491Z,76.20
2022-08-25T19:24:31.015Z,77.10
2022-08-25T19:27:02.525Z,77.90
2022-08-25T19:29:32.665Z,78.60
2022-08-25T19:32:02.643Z,79.10
2022-08-25T19:34:35.295Z,79.00
2022-08-25T19:37:05.918Z,80.10
2022-08-25T19:39:39.247Z,80.30
2022-08-25T19:42:09.155Z,80.70
2022-08-25T19:44:59.135Z,80.10
2022-08-25T19:47:29.832Z,81.70
2022-08-25T19:50:00.685Z,80.90
2022-08-25T19:52:29.463Z,79.70
2022-08-25T19:55:02.827Z,79.60
2022-08-25T19:57:42.399Z,79.60
2022-08-25T20:00:16.504Z,81.00
2022-08-25T20:02:45.986Z,80.20
2022-08-25T20:05:23.934Z,81.20
2022-08-25T20:07:54.207Z,82.30
2022-08-25T20:10:27.021Z,78.90
2022-08-25T20:12:57.546Z,79.50
2022-08-25T20:15:27.584Z,79.60
2022-08-25T20:17:56.878Z,80.80
2022-08-25T20:20:34.374Z,81.90
2022-08-25T20:23:17.456Z,79.70
2022-08-25T20:25:48.176Z,79.30
2022-08-25T20:28:19.282Z,80.20
2022-08-25T20:30:48.258Z,79.70
2022-08-25T20:33:20.033Z,78.50
2022-08-25T20:35:53.031Z,78.90
2022-08-25T20:38:22.578Z,80.00
2022-08-25T20:40:53.135Z,79.60
2022-08-25T20:43:22.182Z,81.00
2022-08-25T20:45:51.058Z,81.30
2022-08-25T20:48:19.932Z,80.90
2022-08-25T20:50:57.184Z,80.80
2022-08-25T20:53:27.606Z,82.50
2022-08-25T20:55:58.214Z,82.50
2022-08-25T20:58:28.094Z,82.20
2022-08-25T21:00:56.922Z,82.20
2022-08-25T21:03:25.712Z,83.60
2022-08-25T21:05:54.515Z,84.10
2022-08-25T21:08:23.765Z,84.00
2022-08-25T21:10:54.250Z,84.20
2022-08-25T21:13:24.529Z,84.70
2022-08-25T21:15:53.430Z,84.60
2022-08-25T21:18:22.239Z,84.00
2022-08-25T21:20:51.092Z,83.50
2022-08-25T21:23:21.365Z,83.20
2022-08-25T21:25:50.214Z,82.60
2022-08-25T21:28:19.822Z,83.90
2022-08-25T21:30:51.408Z,83.90
2022-08-25T21:33:26.388Z,84.40
2022-08-25T21:35:57.223Z,85.00
2022-08-25T21:38:28.803Z,85.60
2022-08-25T21:40:58.091Z,85.10
2022-08-25T21:43:27.083Z,86.00
2022-08-25T21:45:57.389Z,86.80
2022-08-25T21:48:26.843Z,87.90
2022-08-25T21:51:06.297Z,88.00
2022-08-25T21:53:36.032Z,88.50
2022-08-25T21:56:06.537Z,89.00
2022-08-25T21:58:37.552Z,88.70
2022-08-25T22:01:11.056Z,88.50
2022-08-25T22:03:41.509Z,88.70
2022-08-25T22:06:12.736Z,88.90
2022-08-25T22:08:43.446Z,88.60
2022-08-25T22:11:12.455Z,88.30
2022-08-25T22:13:43.306Z,88.20
2022-08-25T22:16:14.225Z,89.10
2022-08-25T22:18:43.769Z,89.00
2022-08-25T22:21:12.547Z,88.00
2022-08-25T22:23:44.214Z,88.30
2022-08-25T22:26:15.487Z,87.60
2022-08-25T22:28:46.687Z,87.70
2022-08-25T22:31:20.714Z,88.00
2022-08-25T22:33:50.459Z,88.30
2022-08-25T22:36:21.348Z,88.20
2022-08-25T22:38:51.276Z,88.20
2022-08-25T22:41:21.580Z,88.10
2022-08-25T22:43:51.296Z,87.40
2022-08-25T22:46:24.382Z,87.30
2022-08-25T22:48:53.314Z,86.70
2022-08-25T22:51:25.596Z,86.60
2022-08-25T22:53:54.864Z,86.60
2022-08-25T22:56:31.963Z,86.20
2022-08-25T22:59:02.829Z,86.20
2022-08-25T23:01:33.659Z,85.60
2022-08-25T23:04:03.378Z,86.00
2022-08-25T23:06:34.558Z,86.50
2022-08-25T23:09:05.323Z,86.80
2022-08-25T23:11:35.761Z,86.90
2022-08-25T23:14:11.245Z,85.40
2022-08-25T23:16:42.559Z,85.40
2022-08-25T23:19:13.557Z,85.60
2022-08-25T23:22:00.708Z,85.90
2022-08-25T23:24:30.768Z,85.00
2022-08-25T23:27:00.934Z,85.30
2022-08-25T23:29:30.593Z,84.60
2022-08-25T23:32:00.945Z,85.00
2022-08-25T23:34:30.175Z,84.40
2022-08-25T23:36:58.975Z,85.60
2022-08-25T23:39:27.795Z,85.10
2022-08-25T23:41:56.999Z,85.30
2022-08-25T23:44:25.885Z,85.00
2022-08-25T23:46:54.831Z,86.20
2022-08-25T23:49:25.615Z,85.50
2022-08-25T23:51:55.745Z,86.20
2022-08-25T23:54:31.460Z,85.50
2022-08-25T23:57:00.616Z,85.00
2022-08-25T23:59:30.488Z,85.40
